createdAt,value
2019-01-20T00:01:03.750Z,101321.43
2019-01-20T00:03:35.045Z,101309.41
2019-01-20T00:06:07.796Z,101311.84
2019-01-20T00:08:38.913Z,101314.42
2019-01-20T00:11:16.612Z,101306.52
2019-01-20T00:13:43.078Z,101305.08
2019-01-20T00:16:14.384Z,101309.17
2019-01-20T00:18:45.594Z,101304.02
2019-01-20T00:21:16.795Z,101304.23
2019-01-20T00:23:48.075Z,101307.55
2019-01-20T00:26:19.262Z,101301.34
2019-01-20T00:28:50.514Z,101299.72
2019-01-20T00:31:21.688Z,101304.21
2019-01-20T00:33:52.845Z,101300.16
2019-01-20T00:36:24.091Z,101301.14
2019-01-20T00:38:55.326Z,101300.63
2019-01-20T00:41:26.536Z,101304.50
2019-01-20T00:43:57.760Z,101299.55
2019-01-20T00:46:28.896Z,101294.61
2019-01-20T00:49:00.292Z,101295.13
2019-01-20T00:51:31.795Z,101299.77
2019-01-20T00:54:02.972Z,101301.64
2019-01-20T00:56:34.498Z,101306.29
2019-01-20T00:59:05.641Z,101306.14
2019-01-20T01:01:36.978Z,101302.85
2019-01-20T01:04:08.193Z,101307.50
2019-01-20T01:06:39.579Z,101301.99
2019-01-20T01:09:10.887Z,101297.45
2019-01-20T01:11:42.052Z,101295.61
2019-01-20T01:14:13.579Z,101292.72
2019-01-20T01:16:44.821Z,101292.72
2019-01-20T01:19:16.097Z,101301.20
2019-01-20T01:21:47.234Z,101302.55
2019-01-20T01:24:18.453Z,101301.48
2019-01-20T01:26:50.649Z,101298.59
2019-01-20T01:29:21.805Z,101296.08
2019-01-20T01:31:53.095Z,101290.61
2019-01-20T01:34:24.312Z,101294.69
2019-01-20T01:36:55.552Z,101291.55
2019-01-20T01:39:26.776Z,101292.91
2019-01-20T01:41:57.949Z,101289.81
2019-01-20T01:44:29.126Z,101290.55
2019-01-20T01:47:00.285Z,101289.47
2019-01-20T01:49:31.525Z,101289.87
2019-01-20T01:52:02.682Z,101287.66
2019-01-20T01:54:33.891Z,101291.37
2019-01-20T01:57:05.163Z,101285.29
2019-01-20T01:59:36.307Z,101286.06
2019-01-20T02:02:07.487Z,101277.45
2019-01-20T02:04:38.666Z,101285.78
2019-01-20T02:07:10.063Z,101284.33
2019-01-20T02:09:41.335Z,101284.70
2019-01-20T02:12:12.652Z,101285.68
2019-01-20T02:14:43.932Z,101286.27
2019-01-20T02:17:15.224Z,101285.18
2019-01-20T02:19:46.404Z,101292.03
2019-01-20T02:22:17.611Z,101288.38
2019-01-20T02:24:48.909Z,101282.66
2019-01-20T02:27:20.178Z,101281.59
2019-01-20T02:29:51.383Z,101277.56
2019-01-20T02:32:23.657Z,101280.91
2019-01-20T02:34:54.909Z,101278.54
2019-01-20T02:37:26.119Z,101285.72
2019-01-20T02:39:57.325Z,101280.04
2019-01-20T02:42:28.504Z,101285.05
2019-01-20T02:44:59.793Z,101289.12
2019-01-20T02:47:30.987Z,101287.67
2019-01-20T02:50:02.195Z,101287.33
2019-01-20T02:52:33.385Z,101287.94
2019-01-20T02:55:05.096Z,101283.92
2019-01-20T02:57:37.349Z,101278.58
2019-01-20T03:00:20.167Z,101277.89
2019-01-20T03:02:52.789Z,101280.69
2019-01-20T03:05:24.715Z,101279.61
2019-01-20T03:07:55.994Z,101280.73
2019-01-20T03:10:27.243Z,101272.30
2019-01-20T03:12:58.652Z,101278.42
2019-01-20T03:15:29.960Z,101282.13
2019-01-20T03:18:02.159Z,101286.57
2019-01-20T03:20:33.491Z,101288.06
2019-01-20T03:23:04.727Z,101287.39
2019-01-20T03:25:35.961Z,101282.44
2019-01-20T03:28:07.196Z,101283.94
2019-01-20T03:30:38.399Z,101285.06
2019-01-20T03:33:11.943Z,101285.80
2019-01-20T03:35:46.105Z,101283.06
2019-01-20T03:38:17.388Z,101285.48
2019-01-20T03:40:48.674Z,101278.33
2019-01-20T03:43:19.882Z,101281.67
2019-01-20T03:45:51.122Z,101281.31
2019-01-20T03:48:22.451Z,101286.88
2019-01-20T03:50:53.684Z,101286.31
2019-01-20T03:53:24.898Z,101283.58
2019-01-20T03:55:56.100Z,101285.44
2019-01-20T03:58:27.232Z,101283.99
2019-01-20T04:00:58.601Z,101281.78
2019-01-20T04:03:29.919Z,101284.20
2019-01-20T04:06:01.180Z,101281.30
2019-01-20T04:08:32.468Z,101289.23
2019-01-20T04:11:03.912Z,101284.29
2019-01-20T04:13:35.225Z,101288.92
2019-01-20T04:16:06.476Z,101290.41
2019-01-20T04:18:37.892Z,101294.48
2019-01-20T04:21:09.200Z,101295.05
2019-01-20T04:23:40.497Z,101293.23
2019-01-20T04:26:11.731Z,101292.31
2019-01-20T04:28:43.173Z,101298.59
2019-01-20T04:31:14.327Z,101298.03
2019-01-20T04:33:45.609Z,101299.72
2019-01-20T04:36:16.895Z,101301.00
2019-01-20T04:38:48.209Z,101296.98
2019-01-20T04:41:19.425Z,101296.27
2019-01-20T04:43:51.769Z,101294.98
2019-01-20T04:46:23.068Z,101295.73
2019-01-20T04:48:54.401Z,101295.18
2019-01-20T04:51:25.675Z,101298.88
2019-01-20T04:53:57.329Z,101302.58
2019-01-20T04:56:28.676Z,101304.07
2019-01-20T04:58:59.880Z,101299.86
2019-01-20T05:01:31.152Z,101306.69
2019-01-20T05:04:02.611Z,101303.95
2019-01-20T05:06:33.852Z,101298.61
2019-01-20T05:09:07.813Z,101295.34
2019-01-20T05:11:39.031Z,101293.70
2019-01-20T05:14:10.338Z,101294.83
2019-01-20T05:16:41.541Z,101302.02
2019-01-20T05:19:13.157Z,101293.58
2019-01-20T05:21:44.369Z,101301.66
2019-01-20T05:24:15.599Z,101305.53
2019-01-20T05:26:46.883Z,101300.22
2019-01-20T05:29:18.146Z,101303.55
2019-01-20T05:31:49.368Z,101302.11
2019-01-20T05:34:20.698Z,101304.67
2019-01-20T05:36:52.190Z,101298.97
2019-01-20T05:39:23.427Z,101298.45
2019-01-20T05:41:54.950Z,101303.43
2019-01-20T05:44:26.089Z,101304.36
2019-01-20T05:46:57.282Z,101301.26
2019-01-20T05:49:28.453Z,101302.75
2019-01-20T05:51:59.794Z,101304.39
2019-01-20T05:54:30.957Z,101310.66
2019-01-20T05:57:02.216Z,101309.73
2019-01-20T05:59:33.420Z,101310.86
2019-01-20T06:02:04.690Z,101309.41
2019-01-20T06:04:36.004Z,101313.84
2019-01-20T06:07:07.415Z,101314.03
2019-01-20T06:09:38.600Z,101319.38
2019-01-20T06:12:09.931Z,101314.07
2019-01-20T06:14:41.155Z,101319.41
2019-01-20T06:17:12.396Z,101323.50
2019-01-20T06:19:43.761Z,101320.20
2019-01-20T06:22:15.074Z,101320.41
2019-01-20T06:24:46.334Z,101320.24
2019-01-20T06:27:17.567Z,101319.31
2019-01-20T06:29:49.037Z,101321.56
2019-01-20T06:32:20.467Z,101323.56
2019-01-20T06:34:51.759Z,101319.74
2019-01-20T06:37:23.086Z,101324.00
2019-01-20T06:39:57.184Z,101320.87
2019-01-20T06:42:28.421Z,101324.92
2019-01-20T06:44:59.615Z,101325.67
2019-01-20T06:47:30.883Z,101328.97
2019-01-20T06:50:02.161Z,101336.33
2019-01-20T06:52:34.421Z,101333.02
2019-01-20T06:55:06.449Z,101335.59
2019-01-20T06:57:37.773Z,101341.14
2019-01-20T07:00:14.806Z,101333.98
2019-01-20T07:02:46.089Z,101339.88
2019-01-20T07:05:17.442Z,101342.65
2019-01-20T07:07:49.004Z,101351.08
2019-01-20T07:10:20.802Z,101346.70
2019-01-20T07:12:52.153Z,101350.92
2019-01-20T07:15:24.717Z,101349.99
2019-01-20T07:17:55.912Z,101355.70
2019-01-20T07:20:27.133Z,101364.70
2019-01-20T07:22:58.341Z,101367.27
2019-01-20T07:25:29.575Z,101372.94
2019-01-20T07:28:01.001Z,101372.05
2019-01-20T07:30:32.187Z,101373.70
2019-01-20T07:33:05.057Z,101381.94
2019-01-20T07:35:36.329Z,101374.39
2019-01-20T07:38:07.694Z,101376.41
2019-01-20T07:40:41.925Z,101381.19
2019-01-20T07:43:17.034Z,101388.31
2019-01-20T07:45:46.258Z,101390.88
2019-01-20T07:48:17.614Z,101386.47
2019-01-20T07:50:48.931Z,101389.20
2019-01-20T07:53:20.124Z,101398.58
2019-01-20T07:55:51.380Z,101397.81
2019-01-20T07:58:22.566Z,101402.41
2019-01-20T08:00:53.811Z,101397.79
2019-01-20T08:03:25.035Z,101406.96
2019-01-20T08:05:58.115Z,101402.38
2019-01-20T08:08:29.348Z,101413.36
2019-01-20T08:11:00.615Z,101406.57
2019-01-20T08:13:31.785Z,101407.30
2019-01-20T08:16:03.020Z,101419.56
2019-01-20T08:18:34.443Z,101418.25
2019-01-20T08:21:05.639Z,101413.84
2019-01-20T08:23:36.834Z,101415.29
2019-01-20T08:26:08.123Z,101420.77
2019-01-20T08:28:39.414Z,101422.26
2019-01-20T08:31:10.653Z,101427.20
2019-01-20T08:33:42.001Z,101432.68
2019-01-20T08:36:13.255Z,101431.20
2019-01-20T08:38:44.557Z,101434.11
2019-01-20T08:41:15.884Z,101437.57
2019-01-20T08:43:47.282Z,101438.30
2019-01-20T08:46:49.632Z,101438.99
2019-01-20T08:49:20.867Z,101441.53
2019-01-20T08:51:52.034Z,101444.08
2019-01-20T08:54:23.370Z,101450.67
2019-01-20T08:56:54.640Z,101450.45
2019-01-20T08:59:25.910Z,101449.69
2019-01-20T09:01:57.159Z,101455.16
2019-01-20T09:04:28.406Z,101455.69
2019-01-20T09:06:59.701Z,101459.69
2019-01-20T09:09:30.948Z,101459.65
2019-01-20T09:12:02.243Z,101466.61
2019-01-20T09:14:33.430Z,101477.97
2019-01-20T09:17:05.115Z,101473.30
2019-01-20T09:19:36.415Z,101473.83
2019-01-20T09:22:07.710Z,101475.25
2019-01-20T09:24:39.308Z,101472.80
2019-01-20T09:27:10.672Z,101476.78
2019-01-20T09:29:41.918Z,101474.20
2019-01-20T09:32:13.556Z,101478.19
2019-01-20T09:34:44.865Z,101477.38
2019-01-20T09:37:16.567Z,101477.53
2019-01-20T09:39:47.863Z,101488.13
2019-01-20T09:42:19.336Z,101485.67
2019-01-20T09:44:50.563Z,101491.70
2019-01-20T09:47:21.845Z,101495.69
2019-01-20T09:49:53.335Z,101494.76
2019-01-20T09:52:24.874Z,101493.58
2019-01-20T09:54:56.077Z,101500.70
2019-01-20T09:57:27.371Z,101493.81
2019-01-20T09:59:58.582Z,101502.98
2019-01-20T10:02:30.002Z,101499.39
2019-01-20T10:05:02.457Z,101500.78
2019-01-20T10:07:33.637Z,101501.66
2019-01-20T10:10:05.892Z,101505.64
2019-01-20T10:12:37.119Z,101494.17
2019-01-20T10:15:09.758Z,101497.78
2019-01-20T10:17:41.204Z,101494.02
2019-01-20T10:20:18.624Z,101490.25
2019-01-20T10:22:50.449Z,101490.91
2019-01-20T10:25:22.668Z,101490.64
2019-01-20T10:27:53.936Z,101488.89
2019-01-20T10:30:30.552Z,101488.11
2019-01-20T10:33:03.359Z,101481.96
2019-01-20T10:35:52.550Z,101488.55
2019-01-20T10:38:23.750Z,101494.73
2019-01-20T10:40:54.986Z,101495.76
2019-01-20T10:43:26.265Z,101495.14
2019-01-20T10:45:57.521Z,101499.52
2019-01-20T10:48:28.760Z,101499.61
2019-01-20T10:51:00.024Z,101492.16
2019-01-20T10:53:31.275Z,101497.98
2019-01-20T10:56:02.440Z,101498.07
2019-01-20T10:58:33.615Z,101502.44
2019-01-20T11:01:04.904Z,101504.19
2019-01-20T11:03:36.210Z,101506.34
2019-01-20T11:06:07.379Z,101503.33
2019-01-20T11:08:38.553Z,101506.37
2019-01-20T11:11:09.896Z,101506.09
2019-01-20T11:13:41.161Z,101507.87
2019-01-20T11:16:13.208Z,101507.43
2019-01-20T11:18:44.471Z,101514.50
2019-01-20T11:21:15.737Z,101508.37
2019-01-20T11:23:47.469Z,101509.04
2019-01-20T11:26:19.371Z,101511.75
2019-01-20T11:28:50.925Z,101503.92
2019-01-20T11:31:22.219Z,101504.00
2019-01-20T11:33:53.480Z,101498.38
2019-01-20T11:36:24.671Z,101496.61
2019-01-20T11:38:55.992Z,101492.70
2019-01-20T11:41:28.455Z,101494.28
2019-01-20T11:43:59.856Z,101493.29
2019-01-20T11:46:31.080Z,101499.69
2019-01-20T11:49:02.313Z,101499.09
2019-01-20T11:51:33.494Z,101499.39
2019-01-20T11:54:04.690Z,101497.50
2019-01-20T11:56:35.935Z,101498.34
2019-01-20T11:59:07.132Z,101493.09
2019-01-20T12:01:38.419Z,101499.12
2019-01-20T12:04:09.593Z,101497.56
2019-01-20T12:06:40.796Z,101495.67
2019-01-20T12:09:12.008Z,101497.27
2019-01-20T12:11:43.198Z,101499.55
2019-01-20T12:14:14.483Z,101498.58
2019-01-20T12:16:45.674Z,101493.84
2019-01-20T12:19:16.953Z,101494.54
2019-01-20T12:21:48.293Z,101495.38
2019-01-20T12:24:19.557Z,101498.41
2019-01-20T12:26:50.898Z,101498.33
2019-01-20T12:29:22.399Z,101500.09
2019-01-20T12:31:53.662Z,101496.87
2019-01-20T12:34:24.962Z,101500.30
2019-01-20T12:36:56.193Z,101501.66
2019-01-20T12:39:27.398Z,101501.60
2019-01-20T12:41:58.611Z,101496.85
2019-01-20T12:44:31.575Z,101499.73
2019-01-20T12:47:03.057Z,101492.80
2019-01-20T12:49:34.315Z,101492.70
2019-01-20T12:52:05.631Z,101495.63
2019-01-20T12:54:36.978Z,101494.61
2019-01-20T12:57:08.208Z,101491.55
2019-01-20T12:59:39.404Z,101495.73
2019-01-20T13:02:10.650Z,101496.42
2019-01-20T13:04:41.900Z,101488.00
2019-01-20T13:07:13.239Z,101497.39
2019-01-20T13:09:44.314Z,101492.87
2019-01-20T13:12:15.545Z,101492.64
2019-01-20T13:14:46.910Z,101492.41
2019-01-20T13:17:18.267Z,101494.91
2019-01-20T13:19:49.532Z,101497.27
2019-01-20T13:22:20.689Z,101503.14
2019-01-20T13:24:52.065Z,101492.91
2019-01-20T13:27:23.264Z,101500.59
2019-01-20T13:29:54.583Z,101497.77
2019-01-20T13:32:25.792Z,101497.53
2019-01-20T13:34:57.232Z,101494.16
2019-01-20T13:37:28.444Z,101498.36
2019-01-20T13:39:59.663Z,101497.95
2019-01-20T13:42:31.449Z,101496.42
2019-01-20T13:45:03.049Z,101496.19
2019-01-20T13:47:34.228Z,101500.63
2019-01-20T13:50:07.570Z,101501.14
2019-01-20T13:52:38.823Z,101502.20
2019-01-20T13:55:10.625Z,101505.31
2019-01-20T13:57:42.757Z,101510.81
2019-01-20T14:00:17.723Z,101513.55
2019-01-20T14:02:49.971Z,101512.91
2019-01-20T14:05:21.349Z,101518.35
2019-01-20T14:07:52.632Z,101518.42
2019-01-20T14:10:24.386Z,101514.54
2019-01-20T14:12:55.646Z,101513.12
2019-01-20T14:15:26.989Z,101504.28
2019-01-20T14:17:58.348Z,101523.25
2019-01-20T14:20:29.554Z,101521.62
2019-01-20T14:23:00.757Z,101518.48
2019-01-20T14:25:32.062Z,101517.47
2019-01-20T14:28:03.370Z,101518.56
2019-01-20T14:30:34.704Z,101517.81
2019-01-20T14:33:06.029Z,101520.78
2019-01-20T14:35:37.219Z,101514.63
2019-01-20T14:38:08.496Z,101516.98
2019-01-20T14:40:39.774Z,101513.84
2019-01-20T14:43:11.130Z,101514.94
2019-01-20T14:45:42.455Z,101521.83
2019-01-20T14:48:13.707Z,101525.88
2019-01-20T14:50:46.152Z,101525.86
2019-01-20T14:53:18.401Z,101528.81
2019-01-20T14:55:49.642Z,101526.58
2019-01-20T14:58:20.939Z,101531.73
2019-01-20T15:00:52.170Z,101538.05
2019-01-20T15:03:23.469Z,101536.16
2019-01-20T15:05:54.754Z,101537.55
2019-01-20T15:08:26.023Z,101531.47
2019-01-20T15:10:57.175Z,101531.30
2019-01-20T15:13:28.785Z,101538.33
2019-01-20T15:16:01.274Z,101548.91
2019-01-20T15:18:32.749Z,101549.98
2019-01-20T15:21:04.282Z,101552.75
2019-01-20T15:23:35.536Z,101556.95
2019-01-20T15:26:06.800Z,101562.17
2019-01-20T15:28:38.412Z,101563.77
2019-01-20T15:31:09.698Z,101562.39
2019-01-20T15:33:40.992Z,101564.86
2019-01-20T15:36:12.290Z,101567.23
2019-01-20T15:38:43.644Z,101571.91
2019-01-20T15:41:14.809Z,101567.51
2019-01-20T15:43:46.138Z,101568.47
2019-01-20T15:46:17.594Z,101571.06
2019-01-20T15:48:48.892Z,101590.68
2019-01-20T15:51:20.219Z,101576.05
2019-01-20T15:53:51.438Z,101576.62
2019-01-20T15:56:23.043Z,101578.45
2019-01-20T15:58:54.570Z,101581.59
2019-01-20T16:01:25.961Z,101582.27
2019-01-20T16:03:57.795Z,101588.12
2019-01-20T16:06:29.458Z,101589.58
2019-01-20T16:09:01.443Z,101591.95
2019-01-20T16:11:34.061Z,101599.09
2019-01-20T16:14:05.774Z,101593.30
2019-01-20T16:16:38.362Z,101598.40
2019-01-20T16:19:09.848Z,101602.21
2019-01-20T16:21:44.825Z,101608.83
2019-01-20T16:24:25.132Z,101611.71
2019-01-20T16:27:01.053Z,101609.41
2019-01-20T16:29:31.914Z,101609.85
2019-01-20T16:32:04.620Z,101613.29
2019-01-20T16:34:36.385Z,101619.27
2019-01-20T16:37:07.834Z,101621.41
2019-01-20T16:39:45.652Z,101620.55
2019-01-20T16:42:15.622Z,101618.03
2019-01-20T16:44:47.085Z,101619.39
2019-01-20T16:47:19.931Z,101624.62
2019-01-20T16:49:51.093Z,101621.33
2019-01-20T16:52:23.585Z,101629.16
2019-01-20T16:54:55.022Z,101628.45
2019-01-20T16:57:28.930Z,101630.36
2019-01-20T17:00:12.390Z,101635.05
2019-01-20T17:02:43.697Z,101635.10
2019-01-20T17:05:14.952Z,101643.08
2019-01-20T17:07:46.299Z,101644.80
2019-01-20T17:10:20.016Z,101647.08
2019-01-20T17:12:52.434Z,101653.23
2019-01-20T17:15:26.199Z,101655.88
2019-01-20T17:17:57.706Z,101657.75
2019-01-20T17:20:29.445Z,101660.91
2019-01-20T17:23:01.276Z,101664.84
2019-01-20T17:25:32.981Z,101663.25
2019-01-20T17:28:04.788Z,101656.48
2019-01-20T17:30:36.765Z,101665.17
2019-01-20T17:33:10.726Z,101665.02
2019-01-20T17:35:42.278Z,101667.81
2019-01-20T17:38:16.544Z,101670.61
2019-01-20T17:40:50.295Z,101665.66
2019-01-20T17:43:23.917Z,101679.55
2019-01-20T17:45:55.320Z,101675.52
2019-01-20T17:48:26.726Z,101673.14
2019-01-20T17:51:00.276Z,101676.70
2019-01-20T17:53:31.992Z,101678.73
2019-01-20T17:56:03.351Z,101678.42
2019-01-20T17:58:35.273Z,101688.20
2019-01-20T18:01:08.387Z,101686.38
2019-01-20T18:03:39.691Z,101684.37
2019-01-20T18:06:10.912Z,101689.38
2019-01-20T18:08:42.160Z,101695.31
2019-01-20T18:11:13.809Z,101696.66
2019-01-20T18:13:46.340Z,101695.17
2019-01-20T18:16:17.603Z,101693.72
2019-01-20T18:18:48.808Z,101691.50
2019-01-20T18:21:20.008Z,101696.14
2019-01-20T18:23:51.222Z,101698.20
2019-01-20T18:26:22.420Z,101707.05
2019-01-20T18:28:53.667Z,101705.96
2019-01-20T18:31:25.086Z,101711.73
2019-01-20T18:33:56.578Z,101716.74
2019-01-20T18:36:27.837Z,101719.16
2019-01-20T18:38:59.185Z,101715.50
2019-01-20T18:41:30.882Z,101720.11
2019-01-20T18:44:02.812Z,101722.16
2019-01-20T18:46:34.104Z,101722.00
2019-01-20T18:49:05.376Z,101723.66
2019-01-20T18:51:36.599Z,101730.48
2019-01-20T18:54:08.042Z,101732.53
2019-01-20T18:56:39.482Z,101733.62
2019-01-20T18:59:10.618Z,101737.74
2019-01-20T19:01:41.834Z,101737.95
2019-01-20T19:04:14.023Z,101738.88
2019-01-20T19:06:45.501Z,101743.36
2019-01-20T19:09:16.840Z,101740.61
2019-01-20T19:11:48.057Z,101742.64
2019-01-20T19:14:19.444Z,101749.29
2019-01-20T19:16:50.867Z,101752.08
2019-01-20T19:19:22.267Z,101753.56
2019-01-20T19:21:53.594Z,101759.50
2019-01-20T19:24:25.115Z,101755.30
2019-01-20T19:26:57.499Z,101759.53
2019-01-20T19:29:28.782Z,101759.37
2019-01-20T19:32:00.062Z,101763.97
2019-01-20T19:34:31.271Z,101757.72
2019-01-20T19:37:02.548Z,101761.43
2019-01-20T19:39:33.797Z,101766.43
2019-01-20T19:42:05.017Z,101769.77
2019-01-20T19:44:36.376Z,101766.10
2019-01-20T19:47:07.616Z,101767.20
2019-01-20T19:49:38.994Z,101780.50
2019-01-20T19:52:10.260Z,101781.79
2019-01-20T19:54:41.755Z,101778.64
2019-01-20T19:57:13.150Z,101785.86
2019-01-20T19:59:44.606Z,101784.73
2019-01-20T20:02:15.999Z,101786.95
2019-01-20T20:04:47.496Z,101789.37
2019-01-20T20:07:18.701Z,101791.95
2019-01-20T20:09:49.936Z,101797.47
2019-01-20T20:12:21.255Z,101795.63
2019-01-20T20:14:52.566Z,101801.74
2019-01-20T20:17:23.782Z,101801.58
2019-01-20T20:19:55.028Z,101801.02
2019-01-20T20:22:27.683Z,101807.47
2019-01-20T20:24:58.955Z,101818.91
2019-01-20T20:27:30.235Z,101815.24
2019-01-20T20:30:01.922Z,101815.24
2019-01-20T20:32:33.478Z,101819.70
2019-01-20T20:35:06.122Z,101820.44
2019-01-20T20:37:37.843Z,101827.48
2019-01-20T20:40:10.571Z,101832.24
2019-01-20T20:42:41.879Z,101832.84
2019-01-20T20:45:15.745Z,101838.72
2019-01-20T20:47:47.490Z,101838.75
2019-01-20T20:50:18.896Z,101843.22
2019-01-20T20:52:50.392Z,101845.98
2019-01-20T20:55:22.041Z,101848.59
2019-01-20T20:57:54.502Z,101852.27
2019-01-20T21:00:31.446Z,101855.97
2019-01-20T21:03:04.897Z,101861.88
2019-01-20T21:05:36.386Z,101865.41
2019-01-20T21:08:08.641Z,101867.23
2019-01-20T21:10:41.243Z,101864.85
2019-01-20T21:13:13.888Z,101866.90
2019-01-20T21:15:45.354Z,101869.67
2019-01-20T21:18:16.729Z,101873.38
2019-01-20T21:20:48.331Z,101870.98
2019-01-20T21:23:19.701Z,101870.42
2019-01-20T21:25:51.150Z,101878.91
2019-01-20T21:28:22.339Z,101881.69
2019-01-20T21:30:53.530Z,101877.45
2019-01-20T21:33:24.903Z,101889.28
2019-01-20T21:35:56.211Z,101886.89
2019-01-20T21:38:27.517Z,101884.50
2019-01-20T21:40:58.766Z,101893.36
2019-01-20T21:43:30.062Z,101895.37
2019-01-20T21:46:01.232Z,101898.72
2019-01-20T21:48:32.580Z,101901.49
2019-01-20T21:51:04.155Z,101902.80
2019-01-20T21:53:35.436Z,101904.11
2019-01-20T21:56:06.827Z,101905.39
2019-01-20T21:58:38.187Z,101907.99
2019-01-20T22:01:09.569Z,101907.78
2019-01-20T22:03:40.857Z,101906.91
2019-01-20T22:06:12.094Z,101910.03
2019-01-20T22:08:43.602Z,101911.87
2019-01-20T22:11:15.161Z,101916.32
2019-01-20T22:13:48.101Z,101920.02
2019-01-20T22:16:19.270Z,101915.77
2019-01-20T22:18:50.558Z,101922.20
2019-01-20T22:21:22.249Z,101916.52
2019-01-20T22:23:53.497Z,101922.98
2019-01-20T22:26:24.761Z,101933.28
2019-01-20T22:28:55.925Z,101929.96
2019-01-20T22:31:28.338Z,101935.48
2019-01-20T22:33:59.582Z,101932.00
2019-01-20T22:36:30.879Z,101929.61
2019-01-20T22:39:02.229Z,101932.19
2019-01-20T22:41:35.052Z,101934.20
2019-01-20T22:44:06.431Z,101938.81
2019-01-20T22:46:37.792Z,101931.28
2019-01-20T22:49:09.115Z,101939.55
2019-01-20T22:51:40.332Z,101939.38
2019-01-20T22:54:11.800Z,101945.28
2019-01-20T22:56:43.032Z,101945.46
2019-01-20T22:59:14.254Z,101944.72
2019-01-20T23:01:45.791Z,101945.83
2019-01-20T23:04:17.345Z,101939.58
2019-01-20T23:06:49.057Z,101938.11
2019-01-20T23:09:21.285Z,101942.33
2019-01-20T23:11:52.613Z,101938.47
2019-01-20T23:14:23.891Z,101935.89
2019-01-20T23:16:55.261Z,101935.72
2019-01-20T23:19:26.620Z,101939.23
2019-01-20T23:21:58.059Z,101943.09
2019-01-20T23:24:29.342Z,101939.23
2019-01-20T23:27:01.743Z,101944.91
2019-01-20T23:29:33.995Z,101937.55
2019-01-20T23:32:05.324Z,101940.12
2019-01-20T23:34:36.634Z,101932.79
2019-01-20T23:37:07.816Z,101935.36
2019-01-20T23:39:39.034Z,101934.79
2019-01-20T23:42:10.207Z,101938.66
2019-01-20T23:44:41.413Z,101940.52
2019-01-20T23:47:15.271Z,101945.10
2019-01-20T23:49:45.655Z,101939.59
2019-01-20T23:52:16.942Z,101940.88
2019-01-20T23:54:48.224Z,101942.35
2019-01-20T23:57:19.478Z,101941.99
2019-01-20T23:59:50.764Z,101941.06
